HU-0009 weather

Kenderes Airport
Kenderes, Jász-Nagykun-Szolnok, Hungary

Public forecast

Using degrees Celsius for public forecast. Weather courtesy of forecast.io.

Closest aviation weather report (METAR) to Kenderes Airport

Closest report is Szolnok Air Base, 19.9 nm (36.8 km) WSW. Retrieved 2020/02/17 06:15 UTC (13 minutes ago):

LHSN 170615Z 17006KT CAVOK 02/00 Q1024 NOSIG RMK BLU

Closest aviation forecast (TAF) to Kenderes Airport

Forecast is more than 12 hours old.

Closest forecast is Szolnok Air Base, 19.9 nm (36.8 km) WSW. Retrieved 2016/06/17 03:24 UTC (4 years ago):

TAF TAF LHSN 170215Z 1703/1715 17009KT CAVOK BECMG 1707/1710 24015G25KT